createdAt,value
2023-01-31T00:00:12.403Z,24.65
2023-01-31T00:02:45.861Z,24.48
2023-01-31T00:05:20.550Z,24.20
2023-01-31T00:07:54.251Z,24.67
2023-01-31T00:10:29.379Z,26.27
2023-01-31T00:13:03.515Z,25.55
2023-01-31T00:15:37.351Z,26.77
2023-01-31T00:18:10.957Z,25.83
2023-01-31T00:20:44.202Z,23.83
2023-01-31T00:23:17.851Z,25.85
2023-01-31T00:25:52.676Z,24.77
2023-01-31T00:28:26.335Z,25.40
2023-01-31T00:30:59.978Z,23.50
2023-01-31T00:36:08.316Z,24.07
2023-01-31T00:38:42.251Z,21.90
2023-01-31T00:41:17.063Z,22.60
2023-01-31T00:43:51.199Z,22.40
2023-01-31T00:46:25.122Z,23.52
2023-01-31T00:51:31.790Z,24.08
2023-01-31T00:54:05.303Z,25.58
2023-01-31T00:56:40.037Z,27.90
2023-01-31T00:59:13.529Z,26.85
2023-01-31T01:01:47.017Z,27.92
2023-01-31T01:04:20.458Z,25.80
2023-01-31T01:06:54.140Z,29.27
2023-01-31T01:09:27.490Z,24.83
2023-01-31T01:12:03.167Z,23.90
2023-01-31T01:14:37.184Z,23.48
2023-01-31T01:17:11.011Z,23.67
2023-01-31T01:19:44.354Z,27.63
2023-01-31T01:22:17.725Z,26.67
2023-01-31T01:24:51.058Z,27.35
2023-01-31T01:27:27.370Z,24.23
2023-01-31T01:30:02.141Z,24.33
2023-01-31T01:32:36.355Z,23.42
2023-01-31T01:35:10.962Z,19.05
2023-01-31T01:37:44.160Z,19.92
2023-01-31T01:40:17.571Z,23.17
2023-01-31T01:42:52.338Z,21.42
2023-01-31T01:45:26.128Z,23.40
2023-01-31T01:50:37.868Z,23.42
2023-01-31T01:53:15.551Z,23.20
2023-01-31T01:55:51.758Z,22.70
2023-01-31T01:58:30.152Z,22.48
2023-01-31T02:01:05.224Z,23.65
2023-01-31T02:03:39.821Z,22.58
2023-01-31T02:06:13.669Z,23.30
2023-01-31T02:11:24.249Z,21.52
2023-01-31T02:14:03.588Z,21.25
2023-01-31T02:16:37.555Z,20.58
2023-01-31T02:19:21.164Z,22.92
2023-01-31T02:22:15.592Z,23.92
2023-01-31T02:25:24.947Z,24.00
2023-01-31T02:28:46.885Z,20.70
2023-01-31T02:31:55.749Z,19.98
2023-01-31T02:34:38.443Z,20.70
2023-01-31T02:37:24.343Z,21.90
2023-01-31T02:40:05.392Z,23.58
2023-01-31T02:42:49.090Z,21.92
2023-01-31T02:45:32.759Z,22.17
2023-01-31T02:48:20.287Z,23.58
2023-01-31T02:51:01.892Z,23.02
2023-01-31T02:53:37.322Z,21.30
2023-01-31T02:56:20.443Z,23.85
2023-01-31T02:58:59.205Z,21.38
2023-01-31T03:01:36.723Z,21.92
2023-01-31T03:04:12.458Z,24.25
2023-01-31T03:07:00.033Z,27.95
2023-01-31T03:09:40.944Z,25.83
2023-01-31T03:12:37.458Z,24.35
2023-01-31T03:15:25.618Z,26.77
2023-01-31T03:18:02.159Z,28.33
2023-01-31T03:20:44.187Z,26.33
2023-01-31T03:23:22.481Z,25.08
2023-01-31T03:25:58.915Z,23.55
2023-01-31T03:28:37.156Z,24.17
2023-01-31T03:31:18.697Z,21.95
2023-01-31T03:33:55.981Z,22.73
2023-01-31T03:36:34.816Z,22.02
2023-01-31T03:39:17.795Z,23.33
2023-01-31T03:41:58.871Z,22.95
2023-01-31T03:44:40.748Z,19.98
2023-01-31T03:47:18.389Z,22.33
2023-01-31T03:49:54.003Z,22.88
2023-01-31T03:52:32.570Z,21.17
2023-01-31T03:55:12.048Z,23.60
2023-01-31T03:57:47.473Z,23.73
2023-01-31T04:00:23.655Z,23.23
2023-01-31T04:03:03.233Z,22.17
2023-01-31T04:05:37.096Z,20.63
2023-01-31T04:08:10.983Z,20.38
2023-01-31T04:10:45.935Z,21.58
2023-01-31T04:13:19.748Z,23.45
2023-01-31T04:15:53.720Z,22.95
2023-01-31T04:18:27.358Z,21.33
2023-01-31T04:23:34.327Z,18.75
2023-01-31T04:26:09.294Z,21.15
2023-01-31T04:28:42.744Z,21.90
2023-01-31T04:33:49.799Z,19.17
2023-01-31T04:36:23.437Z,20.17
2023-01-31T04:38:56.708Z,22.27
2023-01-31T04:41:32.003Z,20.10
2023-01-31T04:44:05.709Z,20.08
2023-01-31T04:46:39.135Z,21.00
2023-01-31T04:49:12.548Z,22.00
2023-01-31T04:51:46.248Z,21.27
2023-01-31T04:54:19.597Z,21.25
2023-01-31T04:56:54.397Z,19.70
2023-01-31T04:59:27.660Z,23.33
2023-01-31T05:02:01.955Z,21.55
2023-01-31T05:04:35.585Z,21.75
2023-01-31T05:07:09.191Z,20.05
2023-01-31T05:09:44.066Z,20.98
2023-01-31T05:12:19.203Z,21.63
2023-01-31T05:14:53.087Z,21.75
2023-01-31T05:17:29.751Z,20.88
2023-01-31T05:20:04.007Z,21.75
2023-01-31T05:22:37.783Z,20.70
2023-01-31T05:25:11.350Z,22.40
2023-01-31T05:27:45.949Z,22.15
2023-01-31T05:30:20.087Z,27.30
2023-01-31T05:32:53.601Z,26.35
2023-01-31T05:35:27.048Z,28.23
2023-01-31T05:38:03.389Z,26.73
2023-01-31T05:40:37.161Z,33.97
2023-01-31T05:43:11.795Z,32.10
2023-01-31T05:45:45.568Z,31.60
2023-01-31T05:50:52.366Z,29.48
2023-01-31T05:53:26.327Z,35.55
2023-01-31T05:58:35.146Z,37.72
2023-01-31T06:01:08.502Z,41.17
2023-01-31T06:03:41.680Z,42.05
2023-01-31T06:06:15.589Z,36.67
2023-01-31T06:08:49.372Z,33.50
2023-01-31T06:11:23.032Z,28.67
2023-01-31T06:13:58.856Z,26.50
2023-01-31T06:16:32.366Z,25.58
2023-01-31T06:19:05.800Z,25.58
2023-01-31T06:21:39.274Z,29.30
2023-01-31T06:24:12.814Z,32.28
2023-01-31T06:29:20.970Z,32.70
2023-01-31T06:31:54.799Z,33.47
2023-01-31T06:34:28.367Z,37.92
2023-01-31T06:37:01.961Z,41.65
2023-01-31T06:39:35.434Z,55.47
2023-01-31T06:42:09.135Z,54.75
2023-01-31T06:44:43.964Z,52.58
2023-01-31T06:47:17.463Z,59.90
2023-01-31T06:49:50.819Z,55.08
2023-01-31T06:52:23.996Z,29.25
2023-01-31T06:54:57.248Z,22.13
2023-01-31T06:57:30.817Z,22.50
2023-01-31T07:00:08.016Z,17.42
2023-01-31T07:02:41.122Z,17.38
2023-01-31T07:05:14.680Z,16.45
2023-01-31T07:10:21.207Z,16.63
2023-01-31T07:12:57.848Z,15.43
2023-01-31T07:15:33.544Z,17.90
2023-01-31T07:18:07.779Z,17.15
2023-01-31T07:23:14.559Z,17.17
2023-01-31T07:25:47.875Z,18.63
2023-01-31T07:30:56.580Z,15.57
2023-01-31T07:33:30.239Z,15.13
2023-01-31T07:36:04.735Z,13.95
2023-01-31T07:38:38.430Z,13.30
2023-01-31T07:41:12.835Z,13.52
2023-01-31T07:43:46.527Z,13.98
2023-01-31T07:46:21.536Z,15.70
2023-01-31T07:48:54.834Z,13.48
2023-01-31T07:51:28.080Z,13.63
2023-01-31T07:54:01.503Z,13.02
2023-01-31T07:56:35.085Z,12.10
2023-01-31T08:02:00.832Z,12.17
2023-01-31T08:04:36.412Z,10.80
2023-01-31T08:07:10.345Z,10.57
2023-01-31T08:09:47.331Z,12.00
2023-01-31T08:12:21.371Z,11.35
2023-01-31T08:14:55.250Z,12.13
2023-01-31T08:17:30.581Z,10.35
2023-01-31T08:20:04.299Z,9.65
2023-01-31T08:25:11.466Z,9.07
2023-01-31T08:27:44.724Z,8.07
2023-01-31T08:30:18.510Z,9.77
2023-01-31T08:32:53.280Z,8.80
2023-01-31T08:35:26.860Z,8.98
2023-01-31T08:38:15.409Z,9.40
2023-01-31T08:40:50.219Z,9.48
2023-01-31T08:43:23.502Z,9.27
2023-01-31T08:45:57.029Z,8.80
2023-01-31T08:48:33.646Z,8.52
2023-01-31T08:51:10.103Z,8.60
2023-01-31T08:53:45.053Z,8.27
2023-01-31T08:56:21.507Z,8.43
2023-01-31T08:58:55.932Z,8.32
2023-01-31T09:01:30.353Z,9.40
2023-01-31T09:04:05.732Z,8.25
2023-01-31T09:06:39.038Z,7.78
2023-01-31T09:09:12.587Z,9.23
2023-01-31T09:11:46.775Z,7.93
2023-01-31T09:14:20.788Z,8.48
2023-01-31T09:16:55.352Z,7.75
2023-01-31T09:19:31.095Z,6.93
2023-01-31T09:22:04.479Z,5.53
2023-01-31T09:24:38.215Z,5.88
2023-01-31T09:27:11.485Z,5.72
2023-01-31T09:29:44.629Z,6.18
2023-01-31T09:32:18.281Z,5.95
2023-01-31T09:34:53.110Z,5.53
2023-01-31T09:37:26.223Z,6.63
2023-01-31T09:39:59.553Z,5.72
2023-01-31T09:42:37.220Z,5.72
2023-01-31T09:45:15.434Z,5.78
2023-01-31T09:47:52.008Z,5.25
2023-01-31T09:50:34.675Z,6.15
2023-01-31T09:53:11.420Z,6.40
2023-01-31T09:55:51.357Z,5.93
2023-01-31T09:58:34.885Z,5.57
2023-01-31T10:01:16.433Z,5.07
2023-01-31T10:04:00.710Z,5.15
2023-01-31T10:06:42.828Z,6.30
2023-01-31T10:09:24.928Z,5.68
2023-01-31T10:12:04.913Z,6.20
2023-01-31T10:14:46.968Z,6.72
2023-01-31T10:17:27.035Z,6.45
2023-01-31T10:20:08.078Z,8.60
2023-01-31T10:22:47.615Z,6.80
2023-01-31T10:25:36.026Z,7.40
2023-01-31T10:28:15.260Z,7.20
2023-01-31T10:30:56.704Z,7.82
2023-01-31T10:33:40.141Z,7.35
2023-01-31T10:36:20.399Z,6.85
2023-01-31T10:39:03.939Z,6.90
2023-01-31T10:41:46.382Z,6.05
2023-01-31T10:44:25.829Z,7.05
2023-01-31T10:47:00.613Z,8.48
2023-01-31T10:49:34.079Z,8.40
2023-01-31T10:52:28.583Z,11.65
2023-01-31T10:55:24.564Z,7.72
2023-01-31T10:57:59.241Z,6.35
2023-01-31T11:00:34.678Z,5.63
2023-01-31T11:03:08.563Z,5.65
2023-01-31T11:05:47.512Z,4.82
2023-01-31T11:08:32.591Z,5.43
2023-01-31T11:11:10.272Z,4.95
2023-01-31T11:13:58.201Z,5.47
2023-01-31T11:16:35.545Z,5.57
2023-01-31T11:19:20.925Z,4.97
2023-01-31T11:21:55.799Z,5.82
2023-01-31T11:24:31.600Z,6.18
2023-01-31T11:27:10.412Z,6.00
2023-01-31T11:29:51.618Z,7.65
2023-01-31T11:32:27.706Z,8.57
2023-01-31T11:35:03.728Z,6.55
2023-01-31T11:37:53.685Z,5.28
2023-01-31T11:40:33.470Z,6.78
2023-01-31T11:43:26.031Z,6.63
2023-01-31T11:46:01.167Z,7.65
2023-01-31T11:48:42.351Z,5.95
2023-01-31T11:51:32.322Z,6.13
2023-01-31T11:54:06.547Z,5.70
2023-01-31T11:56:40.012Z,5.50
2023-01-31T11:59:21.027Z,5.18
2023-01-31T12:01:57.575Z,6.00
2023-01-31T12:04:36.287Z,6.22
2023-01-31T12:07:23.619Z,5.75
2023-01-31T12:09:56.861Z,5.05
2023-01-31T12:12:35.730Z,5.20
2023-01-31T12:15:17.290Z,6.38
2023-01-31T12:17:51.827Z,4.85
2023-01-31T12:20:39.513Z,5.32
2023-01-31T12:23:25.688Z,5.10
2023-01-31T12:26:09.691Z,5.18
2023-01-31T12:31:49.468Z,6.32
2023-01-31T12:34:50.501Z,6.55
2023-01-31T12:37:42.952Z,7.63
2023-01-31T12:40:39.135Z,6.68
2023-01-31T12:43:34.714Z,6.50
2023-01-31T12:46:14.255Z,7.43
2023-01-31T12:49:16.198Z,10.20
2023-01-31T12:52:00.966Z,12.18
2023-01-31T12:54:49.263Z,17.63
2023-01-31T12:57:31.994Z,17.55
2023-01-31T13:00:23.527Z,14.93
2023-01-31T13:03:25.193Z,11.23
2023-01-31T13:06:05.114Z,10.48
2023-01-31T13:08:42.351Z,10.50
2023-01-31T13:11:20.291Z,10.23
2023-01-31T13:13:58.465Z,9.38
2023-01-31T13:16:37.005Z,7.80
2023-01-31T13:19:19.338Z,10.02
2023-01-31T13:21:59.090Z,7.35
2023-01-31T13:24:38.342Z,7.07
2023-01-31T13:27:20.187Z,9.95
2023-01-31T13:30:00.132Z,8.98
2023-01-31T13:32:39.652Z,5.97
2023-01-31T13:35:22.439Z,6.35
2023-01-31T13:38:03.380Z,5.65
2023-01-31T13:40:43.062Z,6.18
2023-01-31T13:43:18.057Z,5.63
2023-01-31T13:45:58.165Z,9.95
2023-01-31T13:48:38.573Z,6.13
2023-01-31T13:51:17.987Z,6.35
2023-01-31T13:53:58.151Z,9.32
2023-01-31T13:56:35.080Z,8.27
2023-01-31T13:59:09.752Z,9.63
2023-01-31T14:01:47.832Z,10.10
2023-01-31T14:04:39.107Z,13.05
2023-01-31T14:07:21.661Z,15.55
2023-01-31T14:10:32.639Z,17.92
2023-01-31T14:13:37.840Z,16.25
2023-01-31T14:16:42.915Z,14.93
2023-01-31T14:19:56.808Z,8.43
2023-01-31T14:22:34.895Z,8.38
2023-01-31T14:25:15.591Z,11.55
2023-01-31T14:28:04.143Z,9.60
2023-01-31T14:30:41.897Z,6.63
2023-01-31T14:33:26.051Z,7.43
2023-01-31T14:36:35.561Z,8.20
2023-01-31T14:39:35.441Z,11.10
2023-01-31T14:42:44.477Z,9.65
2023-01-31T14:45:32.511Z,9.80
2023-01-31T14:48:28.430Z,8.68
2023-01-31T14:51:14.462Z,8.70
2023-01-31T14:54:29.284Z,8.57
2023-01-31T14:57:14.084Z,9.43
2023-01-31T14:59:56.755Z,10.27
2023-01-31T15:02:57.004Z,9.77
2023-01-31T15:05:45.564Z,10.13
2023-01-31T15:08:42.150Z,10.50
2023-01-31T15:11:42.562Z,13.05
2023-01-31T15:14:37.712Z,12.00
2023-01-31T15:17:33.066Z,12.77
2023-01-31T15:20:18.416Z,13.15
2023-01-31T15:22:58.978Z,14.02
2023-01-31T15:25:36.096Z,14.40
2023-01-31T15:28:13.927Z,13.43
2023-01-31T15:30:48.433Z,13.07
2023-01-31T15:33:28.385Z,12.20
2023-01-31T15:36:05.476Z,12.57
2023-01-31T15:38:45.077Z,12.75
2023-01-31T15:41:22.587Z,11.73
2023-01-31T15:43:57.519Z,13.05
2023-01-31T15:46:32.286Z,11.80
2023-01-31T15:49:37.949Z,14.05
2023-01-31T15:52:16.099Z,13.57
2023-01-31T15:54:55.927Z,15.52
2023-01-31T15:57:36.873Z,16.77
2023-01-31T16:00:19.818Z,15.77
2023-01-31T16:03:00.636Z,17.20
2023-01-31T16:05:35.999Z,17.02
2023-01-31T16:08:26.533Z,15.15
2023-01-31T16:11:04.866Z,13.25
2023-01-31T16:13:41.029Z,11.52
2023-01-31T16:16:15.911Z,12.82
2023-01-31T16:18:52.524Z,13.07
2023-01-31T16:21:29.027Z,13.27
2023-01-31T16:24:09.435Z,15.80
2023-01-31T16:26:56.879Z,15.55
2023-01-31T16:29:40.321Z,16.52
2023-01-31T16:32:18.056Z,15.85
2023-01-31T16:34:57.897Z,13.95
2023-01-31T16:37:35.526Z,13.75
2023-01-31T16:40:21.013Z,13.15
2023-01-31T16:43:10.240Z,14.38
2023-01-31T16:45:53.031Z,14.05
2023-01-31T16:48:29.225Z,14.27
2023-01-31T16:51:28.128Z,12.48
2023-01-31T16:54:20.603Z,13.98
2023-01-31T16:57:21.401Z,11.15
2023-01-31T16:59:56.512Z,12.13
2023-01-31T17:02:32.848Z,12.20
2023-01-31T17:05:16.953Z,11.95
2023-01-31T17:07:50.701Z,11.23
2023-01-31T17:10:27.308Z,10.38
2023-01-31T17:13:04.793Z,11.40
2023-01-31T17:15:42.141Z,12.63
2023-01-31T17:18:15.880Z,11.70
2023-01-31T17:20:50.949Z,7.75
2023-01-31T17:23:24.309Z,8.98
2023-01-31T17:25:57.964Z,9.23
2023-01-31T17:28:31.568Z,10.85
2023-01-31T17:31:07.004Z,10.48
2023-01-31T17:33:40.278Z,9.43
2023-01-31T17:36:14.125Z,10.25
2023-01-31T17:41:31.660Z,9.93
2023-01-31T17:44:08.446Z,10.05
2023-01-31T17:46:43.678Z,8.88
2023-01-31T17:49:17.822Z,8.93
2023-01-31T17:52:01.019Z,7.95
2023-01-31T17:54:35.716Z,7.78
2023-01-31T17:57:10.210Z,10.07
2023-01-31T17:59:44.543Z,8.93
2023-01-31T18:02:21.727Z,9.93
2023-01-31T18:05:01.812Z,9.85
2023-01-31T18:07:36.630Z,8.75
2023-01-31T18:10:13.628Z,6.43
2023-01-31T18:12:52.048Z,6.65
2023-01-31T18:15:28.801Z,7.75
2023-01-31T18:18:09.416Z,7.75
2023-01-31T18:20:49.888Z,7.53
2023-01-31T18:26:04.811Z,5.70
2023-01-31T18:28:42.443Z,5.90
2023-01-31T18:31:18.208Z,6.72
2023-01-31T18:33:54.169Z,6.90
2023-01-31T18:36:28.551Z,6.05
2023-01-31T18:39:03.551Z,7.95
2023-01-31T18:41:38.342Z,8.27
2023-01-31T18:44:15.984Z,10.13
2023-01-31T18:46:53.402Z,10.45
2023-01-31T18:49:30.495Z,10.00
2023-01-31T18:52:07.176Z,11.20
2023-01-31T18:54:42.273Z,11.40
2023-01-31T18:57:16.918Z,10.63
2023-01-31T18:59:51.660Z,10.20
2023-01-31T19:02:26.424Z,10.02
2023-01-31T19:05:03.073Z,7.95
2023-01-31T19:07:40.251Z,7.30
2023-01-31T19:10:14.747Z,6.10
2023-01-31T19:12:50.221Z,7.25
2023-01-31T19:15:25.532Z,12.65
2023-01-31T19:18:01.018Z,11.40
2023-01-31T19:20:38.639Z,10.50
2023-01-31T19:23:15.789Z,6.97
2023-01-31T19:25:50.619Z,9.13
2023-01-31T19:28:26.487Z,9.77
2023-01-31T19:31:06.554Z,10.70
2023-01-31T19:33:41.587Z,12.43
2023-01-31T19:36:23.793Z,11.75
2023-01-31T19:39:03.693Z,10.48
2023-01-31T19:41:38.531Z,10.27
2023-01-31T19:44:12.257Z,9.93
2023-01-31T19:49:22.231Z,9.00
2023-01-31T19:51:58.258Z,6.78
2023-01-31T19:54:32.803Z,7.68
2023-01-31T19:57:06.443Z,7.22
2023-01-31T19:59:41.059Z,8.25
2023-01-31T20:02:14.575Z,7.47
2023-01-31T20:04:47.827Z,8.23
2023-01-31T20:07:23.168Z,10.60
2023-01-31T20:09:56.485Z,9.75
2023-01-31T20:12:30.434Z,11.98
2023-01-31T20:15:06.084Z,10.73
2023-01-31T20:17:39.452Z,10.63
2023-01-31T20:20:13.286Z,11.05
2023-01-31T20:22:48.198Z,11.13
2023-01-31T20:25:21.500Z,12.13
2023-01-31T20:27:54.741Z,13.77
2023-01-31T20:30:28.359Z,12.45
2023-01-31T20:33:01.869Z,12.07
2023-01-31T20:35:34.919Z,11.90
2023-01-31T20:38:10.464Z,10.27
2023-01-31T20:40:50.004Z,9.98
2023-01-31T20:43:25.999Z,9.13
2023-01-31T20:46:04.254Z,10.13
2023-01-31T20:48:38.555Z,10.77
2023-01-31T20:51:12.511Z,10.30
2023-01-31T20:53:47.012Z,11.10
2023-01-31T20:56:20.367Z,9.55
2023-01-31T20:58:53.759Z,9.18
2023-01-31T21:01:26.904Z,10.05
2023-01-31T21:04:00.506Z,10.50
2023-01-31T21:09:08.994Z,9.63
2023-01-31T21:11:43.018Z,10.30
2023-01-31T21:14:16.721Z,12.10
2023-01-31T21:16:50.445Z,12.00
2023-01-31T21:19:23.796Z,12.25
2023-01-31T21:21:57.522Z,12.93
2023-01-31T21:24:32.585Z,12.95
2023-01-31T21:27:06.173Z,13.43
2023-01-31T21:29:39.347Z,15.05
2023-01-31T21:32:12.832Z,16.33
2023-01-31T21:34:46.223Z,14.52
2023-01-31T21:37:19.724Z,15.60
2023-01-31T21:39:54.705Z,16.48
2023-01-31T21:42:26.923Z,20.73
2023-01-31T21:45:00.021Z,19.92
2023-01-31T21:47:33.704Z,18.75
2023-01-31T21:50:08.402Z,18.77
2023-01-31T21:52:41.572Z,18.70
2023-01-31T21:55:17.300Z,18.60
2023-01-31T21:57:50.691Z,19.38
2023-01-31T22:00:24.177Z,18.63
2023-01-31T22:02:57.626Z,17.33
2023-01-31T22:05:31.047Z,17.75
2023-01-31T22:08:04.408Z,14.70
2023-01-31T22:10:39.244Z,16.20
2023-01-31T22:13:13.239Z,15.75
2023-01-31T22:18:20.267Z,14.95
2023-01-31T22:20:54.554Z,16.27
2023-01-31T22:23:27.769Z,17.38
2023-01-31T22:26:05.496Z,17.85
2023-01-31T22:28:39.765Z,19.65
2023-01-31T22:31:14.180Z,18.80
2023-01-31T22:33:48.509Z,20.38
2023-01-31T22:36:24.198Z,21.50
2023-01-31T22:38:57.730Z,24.42
2023-01-31T22:41:32.969Z,23.42
2023-01-31T22:44:06.793Z,26.83
2023-01-31T22:46:40.101Z,26.10
2023-01-31T22:49:13.366Z,30.75
2023-01-31T22:51:46.794Z,31.85
2023-01-31T22:54:20.022Z,30.98
2023-01-31T22:59:28.591Z,29.67
2023-01-31T23:02:02.032Z,32.72
2023-01-31T23:04:35.249Z,33.63
2023-01-31T23:07:10.600Z,32.70
2023-01-31T23:09:43.973Z,34.28
2023-01-31T23:14:52.489Z,21.73
2023-01-31T23:17:38.515Z,17.33
2023-01-31T23:20:14.269Z,12.07
2023-01-31T23:22:47.928Z,9.93
2023-01-31T23:25:22.199Z,10.02
2023-01-31T23:27:58.336Z,9.05
2023-01-31T23:30:31.802Z,9.68
2023-01-31T23:33:05.255Z,11.23
2023-01-31T23:35:38.945Z,9.50
2023-01-31T23:38:12.207Z,9.70
2023-01-31T23:40:45.500Z,10.27
2023-01-31T23:43:20.578Z,8.93
2023-01-31T23:45:54.099Z,9.80
2023-01-31T23:48:27.530Z,10.05
2023-01-31T23:51:04.041Z,10.00
2023-01-31T23:53:37.202Z,8.85
2023-01-31T23:56:10.364Z,9.52
2023-01-31T23:58:45.325Z,9.10
